Time;durP1;ratioP1;P1;durP2;ratioP2;P2;SDS_P1;SDS_P2;PMS_P1;PMS_P2;Temp;Humidity;BMP_temperature;BMP_pressure;BME280_temperature;BME280_humidity;BME280_pressure;Samples;Min_cycle;Max_cycle;Signal;HPM_P1;HPM_P2
2022/04/02 00:01:41;;;;;;;19.40;12.70;;;0.40;99.90;;;;;;4992998;28;20554;-57
2022/04/02 00:04:07;;;;;;;20.03;13.03;;;0.40;99.90;;;;;;4988384;28;20196;-56
2022/04/02 00:06:33;;;;;;;19.10;13.57;;;0.40;99.90;;;;;;4992507;28;20444;-57
2022/04/02 00:08:59;;;;;;;19.93;13.40;;;0.40;99.90;;;;;;4991729;28;20438;-58
2022/04/02 00:11:25;;;;;;;20.23;13.03;;;0.40;99.90;;;;;;4992320;28;21361;-58
2022/04/02 00:13:51;;;;;;;18.30;13.00;;;0.40;99.90;;;;;;5007939;28;20561;-56
2022/04/02 00:16:17;;;;;;;19.97;12.80;;;0.40;99.90;;;;;;4990113;28;20457;-58
2022/04/02 00:18:43;;;;;;;21.27;12.83;;;0.40;99.90;;;;;;4990871;28;20980;-58
2022/04/02 00:21:09;;;;;;;18.73;12.73;;;0.40;99.90;;;;;;4989665;28;20178;-58
2022/04/02 00:23:43;;;;;;;17.90;12.40;;;0.40;99.90;;;;;;4991222;28;20459;-58
2022/04/02 00:26:14;;;;;;;18.70;14.17;;;0.40;99.90;;;;;;4984718;28;20438;-58
2022/04/02 00:28:41;;;;;;;20.60;12.57;;;0.40;99.90;;;;;;4999812;28;20437;-58
2022/04/02 00:31:08;;;;;;;21.07;12.33;;;0.30;99.90;;;;;;5000325;28;20524;-57
2022/04/02 00:33:34;;;;;;;17.63;12.53;;;0.30;99.90;;;;;;4990079;28;20507;-56
2022/04/02 00:36:01;;;;;;;17.77;11.60;;;0.30;99.90;;;;;;4987760;28;21112;-58
2022/04/02 00:38:27;;;;;;;17.27;11.80;;;0.30;99.90;;;;;;4989557;28;20442;-57
2022/04/02 00:40:53;;;;;;;19.80;12.20;;;0.20;99.90;;;;;;4990259;28;20920;-58
2022/04/02 00:43:22;;;;;;;17.57;12.10;;;0.20;99.90;;;;;;4988875;28;20190;-57
2022/04/02 00:45:49;;;;;;;20.23;13.40;;;0.20;99.90;;;;;;4990930;28;20435;-57
2022/04/02 00:48:14;;;;;;;16.83;11.30;;;0.20;99.90;;;;;;5003328;28;20436;-58
2022/04/02 00:50:40;;;;;;;21.00;12.40;;;0.20;99.90;;;;;;4988849;28;20808;-58
2022/04/02 00:53:06;;;;;;;19.90;12.73;;;0.20;99.90;;;;;;4990700;28;20172;-57
2022/04/02 00:55:33;;;;;;;16.87;11.10;;;0.20;99.90;;;;;;4998544;28;20969;-58
2022/04/02 00:58:02;;;;;;;15.93;10.67;;;0.20;99.90;;;;;;4986365;28;20342;-56
2022/04/02 01:00:27;;;;;;;15.40;10.70;;;0.20;99.90;;;;;;4987046;28;20573;-57
2022/04/02 01:02:53;;;;;;;17.00;10.57;;;0.10;99.90;;;;;;4986275;28;20525;-56
2022/04/02 01:05:20;;;;;;;14.50;10.40;;;0.10;99.90;;;;;;4985541;28;20224;-58
2022/04/02 01:07:46;;;;;;;15.97;10.83;;;0.10;99.90;;;;;;4989556;28;20183;-56
2022/04/02 01:10:12;;;;;;;14.57;10.50;;;0.10;99.90;;;;;;4991488;28;20497;-58
2022/04/02 01:12:38;;;;;;;15.50;10.33;;;0.10;99.90;;;;;;4989292;28;20434;-58
2022/04/02 01:15:04;;;;;;;14.00;9.80;;;0.10;99.90;;;;;;4987988;28;20552;-58
2022/04/02 01:17:30;;;;;;;13.47;9.57;;;0.10;99.90;;;;;;4987731;28;21191;-58
2022/04/02 01:19:55;;;;;;;14.63;9.47;;;0.10;99.90;;;;;;4985579;28;20493;-58
2022/04/02 01:22:22;;;;;;;12.87;8.63;;;0.10;99.90;;;;;;4990448;28;20180;-58
2022/04/02 01:24:48;;;;;;;13.80;9.30;;;0.10;99.90;;;;;;4990861;28;20199;-58
2022/04/02 01:27:14;;;;;;;13.10;8.77;;;0.10;99.90;;;;;;4983933;28;20437;-57
2022/04/02 01:29:39;;;;;;;13.10;8.63;;;0.10;99.90;;;;;;4987017;28;20428;-58
2022/04/02 01:32:06;;;;;;;11.87;7.97;;;0.10;99.90;;;;;;4986378;28;20183;-57
2022/04/02 01:34:32;;;;;;;16.70;9.63;;;0.10;99.90;;;;;;4986210;28;20241;-58
2022/04/02 01:36:58;;;;;;;14.13;8.80;;;0.10;99.90;;;;;;4986449;28;20545;-59
2022/04/02 01:39:24;;;;;;;12.27;7.80;;;0.10;99.90;;;;;;5001216;28;20512;-58
2022/04/02 01:41:49;;;;;;;12.00;8.50;;;0.10;99.90;;;;;;4996203;28;20176;-57
2022/04/02 01:44:15;;;;;;;12.50;7.57;;;0.10;99.90;;;;;;4984697;28;20218;-58
2022/04/02 01:46:41;;;;;;;12.67;8.30;;;0.10;99.90;;;;;;4982770;28;20187;-57
2022/04/02 01:49:06;;;;;;;12.27;8.60;;;0.10;99.90;;;;;;4980431;28;20187;-58
2022/04/02 01:51:32;;;;;;;9.83;6.80;;;0.10;99.90;;;;;;4990625;28;20671;-58
2022/04/02 01:53:58;;;;;;;9.67;7.20;;;0.20;99.90;;;;;;4979064;28;20456;-58
2022/04/02 01:56:24;;;;;;;12.60;7.47;;;0.20;99.90;;;;;;4992442;28;20459;-57
2022/04/02 01:58:49;;;;;;;11.13;7.30;;;0.20;99.90;;;;;;4985491;28;20180;-58
2022/04/02 02:01:15;;;;;;;10.97;7.97;;;0.20;99.90;;;;;;4985523;28;20200;-58
2022/04/02 02:03:41;;;;;;;13.20;7.80;;;0.20;99.90;;;;;;4989693;28;20350;-58
2022/04/02 02:06:07;;;;;;;10.90;7.67;;;0.30;99.90;;;;;;4988704;28;20183;-58
2022/04/02 02:08:33;;;;;;;10.80;8.00;;;0.30;99.90;;;;;;4989392;28;20183;-59
2022/04/02 02:10:59;;;;;;;9.53;6.93;;;0.30;99.90;;;;;;4990206;28;20438;-58
2022/04/02 02:13:25;;;;;;;10.93;7.67;;;0.30;99.90;;;;;;5004901;28;20519;-58
2022/04/02 02:15:50;;;;;;;9.20;6.70;;;0.30;99.90;;;;;;4983969;28;20591;-58
2022/04/02 02:18:16;;;;;;;8.80;6.53;;;0.30;99.90;;;;;;4989603;28;20266;-57
2022/04/02 02:20:43;;;;;;;8.40;6.70;;;0.30;99.90;;;;;;4989951;28;20173;-57
2022/04/02 02:23:08;;;;;;;7.00;5.80;;;0.30;99.90;;;;;;4987977;28;20167;-57
2022/04/02 02:25:34;;;;;;;8.03;6.30;;;0.30;99.90;;;;;;4983456;28;20510;-58
2022/04/02 02:28:00;;;;;;;8.40;6.40;;;0.30;99.90;;;;;;4989828;28;20664;-58
2022/04/02 02:30:26;;;;;;;9.27;6.30;;;0.30;99.90;;;;;;4986529;28;20192;-58
2022/04/02 02:35:49;;;;;;;7.90;5.83;;;0.30;99.90;;;;;;4977326;28;20439;-58
2022/04/02 02:35:49;;;;;;;7.43;5.90;;;0.30;99.90;;;;;;4991109;28;20182;-59
2022/04/02 02:38:15;;;;;;;6.80;5.10;;;0.30;99.90;;;;;;4995482;28;20437;-59
2022/04/02 02:40:41;;;;;;;7.03;5.77;;;0.30;99.90;;;;;;4983538;28;21070;-59
2022/04/02 02:43:08;;;;;;;8.20;6.13;;;0.30;99.90;;;;;;5007752;28;20434;-58
2022/04/02 02:45:34;;;;;;;8.03;5.60;;;0.30;99.90;;;;;;4983340;28;20434;-58
2022/04/02 02:48:02;;;;;;;7.60;5.43;;;0.30;99.90;;;;;;4987352;28;20434;-59
2022/04/02 02:50:28;;;;;;;5.63;4.97;;;0.30;99.90;;;;;;4982016;28;20947;-59
2022/04/02 02:52:54;;;;;;;9.00;5.60;;;0.30;99.90;;;;;;4988839;28;20441;-59
2022/04/02 02:55:20;;;;;;;6.47;4.60;;;0.30;99.90;;;;;;4980479;28;20230;-59
2022/04/02 02:57:46;;;;;;;8.77;6.10;;;0.30;99.90;;;;;;5001784;28;20475;-59
2022/04/02 03:00:15;;;;;;;6.80;5.20;;;0.30;99.90;;;;;;4988996;28;21005;-59
2022/04/02 03:02:43;;;;;;;6.00;4.87;;;0.30;99.90;;;;;;4985370;28;20434;-59
2022/04/02 03:05:17;;;;;;;6.70;5.40;;;0.40;99.90;;;;;;4996803;28;20463;-59
2022/04/02 03:07:51;;;;;;;6.13;5.37;;;0.40;99.90;;;;;;4988215;28;20430;-59
2022/04/02 03:10:18;;;;;;;6.30;5.30;;;0.40;99.90;;;;;;4997367;28;20475;-59
2022/04/02 03:12:45;;;;;;;7.03;5.80;;;0.30;99.90;;;;;;4990001;28;20569;-59
2022/04/02 03:15:12;;;;;;;6.60;5.17;;;0.30;99.90;;;;;;4994836;28;20451;-59
2022/04/02 03:17:38;;;;;;;5.10;4.60;;;0.40;99.90;;;;;;4985426;28;20464;-59
2022/04/02 03:20:05;;;;;;;6.13;5.30;;;0.30;99.90;;;;;;4981505;28;20435;-59
2022/04/02 03:22:35;;;;;;;6.67;5.20;;;0.30;99.90;;;;;;4987592;28;20438;-59
2022/04/02 03:25:01;;;;;;;5.70;4.83;;;0.30;99.90;;;;;;4984166;28;21006;-60
2022/04/02 03:27:27;;;;;;;5.70;5.10;;;0.30;99.90;;;;;;5004324;28;21229;-60
2022/04/02 03:29:53;;;;;;;8.40;5.90;;;0.30;99.90;;;;;;4977415;28;20433;-58
2022/04/02 03:32:19;;;;;;;7.00;5.90;;;0.30;99.90;;;;;;4981965;28;20438;-59
2022/04/02 03:34:44;;;;;;;7.50;5.97;;;0.30;99.90;;;;;;4986246;28;20250;-59
2022/04/02 03:37:10;;;;;;;5.53;5.00;;;0.30;99.90;;;;;;4989886;28;20226;-59
2022/04/02 03:39:36;;;;;;;6.50;5.40;;;0.40;99.90;;;;;;5003200;28;20193;-59
2022/04/02 03:42:01;;;;;;;6.63;5.33;;;0.30;99.90;;;;;;4986070;28;20176;-59
2022/04/02 03:44:27;;;;;;;6.63;5.30;;;0.30;99.90;;;;;;4984743;28;20222;-59
2022/04/02 03:47:08;;;;;;;7.20;5.57;;;0.30;99.90;;;;;;4988128;28;20180;-57
2022/04/02 03:49:34;;;;;;;8.63;6.47;;;0.40;99.90;;;;;;4981609;28;20877;-59
2022/04/02 03:52:00;;;;;;;7.23;5.60;;;0.40;99.90;;;;;;4983691;28;20434;-59
2022/04/02 03:54:26;;;;;;;6.80;5.67;;;0.30;99.90;;;;;;4987517;28;20470;-59
2022/04/02 03:56:52;;;;;;;6.33;5.30;;;0.40;99.90;;;;;;4979978;28;20453;-57
2022/04/02 03:59:18;;;;;;;6.70;5.33;;;0.40;99.90;;;;;;4985350;28;20719;-59
2022/04/02 04:01:44;;;;;;;5.73;5.03;;;0.30;99.90;;;;;;4986835;28;20190;-59
2022/04/02 04:04:10;;;;;;;6.80;5.03;;;0.30;99.90;;;;;;4987302;28;20548;-58
2022/04/02 04:06:37;;;;;;;7.80;5.47;;;0.30;99.90;;;;;;4987839;28;20886;-59
2022/04/02 04:09:03;;;;;;;7.27;5.20;;;0.30;99.90;;;;;;4986491;28;20517;-59
2022/04/02 04:11:29;;;;;;;5.80;5.07;;;0.30;99.90;;;;;;4987931;28;20631;-59
2022/04/02 04:13:55;;;;;;;6.63;5.03;;;0.30;99.90;;;;;;4987619;28;20587;-58
2022/04/02 04:16:20;;;;;;;7.70;5.27;;;0.30;99.90;;;;;;4987670;28;20630;-59
2022/04/02 04:18:46;;;;;;;5.80;5.17;;;0.30;99.90;;;;;;4983000;28;20549;-59
2022/04/02 04:21:15;;;;;;;5.57;4.97;;;0.30;99.90;;;;;;4983987;28;20178;-58
2022/04/02 04:23:42;;;;;;;5.80;5.00;;;0.30;99.90;;;;;;4992973;28;20442;-59
2022/04/02 04:26:08;;;;;;;5.00;4.50;;;0.30;99.90;;;;;;4991019;28;20550;-60
2022/04/02 04:28:35;;;;;;;6.40;4.70;;;0.40;99.90;;;;;;5004836;28;20480;-59
2022/04/02 04:31:01;;;;;;;8.27;5.10;;;0.40;99.90;;;;;;4992265;28;20439;-58
2022/04/02 04:33:27;;;;;;;6.80;4.73;;;0.40;99.90;;;;;;4991887;28;20458;-58
2022/04/02 04:35:52;;;;;;;5.43;4.63;;;0.30;99.90;;;;;;5074596;22;20225;-58
2022/04/02 04:38:18;;;;;;;5.60;4.30;;;0.30;99.90;;;;;;5053708;28;20706;-59
2022/04/02 04:40:43;;;;;;;5.40;4.70;;;0.30;99.90;;;;;;5061394;28;20217;-58
2022/04/02 04:43:09;;;;;;;6.60;5.03;;;0.30;99.90;;;;;;5057169;28;20265;-58
2022/04/02 04:45:35;;;;;;;7.83;5.17;;;0.30;99.90;;;;;;5059769;28;20214;-59
2022/04/02 04:48:00;;;;;;;6.07;4.33;;;0.30;99.90;;;;;;5058485;28;20245;-58
2022/04/02 04:50:27;;;;;;;6.20;4.90;;;0.20;99.90;;;;;;5059642;28;20185;-58
2022/04/02 04:52:52;;;;;;;5.97;5.07;;;0.20;99.90;;;;;;5053756;28;20197;-59
2022/04/02 04:55:18;;;;;;;5.77;4.57;;;0.20;99.90;;;;;;5060910;28;20458;-58
2022/04/02 04:57:44;;;;;;;6.60;5.40;;;0.20;99.90;;;;;;5058975;28;20501;-58
2022/04/02 05:00:10;;;;;;;7.27;5.30;;;0.30;99.90;;;;;;5051418;28;20435;-58
2022/04/02 05:02:36;;;;;;;7.70;5.57;;;0.30;99.90;;;;;;5059072;28;20187;-60
2022/04/02 05:05:02;;;;;;;7.43;5.50;;;0.30;99.90;;;;;;5065974;28;20420;-59
2022/04/02 05:07:29;;;;;;;6.90;5.43;;;0.30;99.90;;;;;;5067269;28;20232;-58
2022/04/02 05:09:55;;;;;;;6.00;5.30;;;0.30;99.90;;;;;;5067131;28;20458;-59
2022/04/02 05:12:21;;;;;;;6.53;5.33;;;0.30;99.90;;;;;;5064422;28;20420;-58
2022/04/02 05:14:49;;;;;;;5.90;4.97;;;0.30;99.90;;;;;;5066853;28;20484;-57
2022/04/02 05:17:16;;;;;;;8.53;5.83;;;0.40;99.90;;;;;;5039707;28;20462;-58
2022/04/02 05:19:42;;;;;;;7.70;5.90;;;0.30;99.90;;;;;;5048284;28;20453;-58
2022/04/02 05:22:10;;;;;;;7.30;5.50;;;0.40;99.90;;;;;;5047026;28;20432;-58
2022/04/02 05:24:37;;;;;;;8.50;5.40;;;0.30;99.90;;;;;;5041648;28;20447;-58
2022/04/02 05:27:03;;;;;;;6.70;5.07;;;0.30;99.90;;;;;;5043328;28;20534;-58
2022/04/02 05:29:29;;;;;;;6.87;5.57;;;0.30;99.90;;;;;;5056587;28;20433;-58
2022/04/02 05:31:55;;;;;;;6.33;5.37;;;0.40;99.90;;;;;;5051562;28;20521;-57
2022/04/02 05:34:21;;;;;;;7.13;5.57;;;0.30;99.90;;;;;;5039657;28;20586;-58
2022/04/02 05:36:46;;;;;;;6.57;5.53;;;0.40;99.90;;;;;;5042233;28;20235;-57
2022/04/02 05:39:12;;;;;;;8.67;6.23;;;0.40;99.90;;;;;;5042984;28;20173;-57
2022/04/02 05:41:37;;;;;;;9.77;6.63;;;0.40;99.90;;;;;;5039210;28;20188;-63
2022/04/02 05:44:05;;;;;;;9.03;6.23;;;0.40;99.90;;;;;;5041438;28;20264;-58
2022/04/02 05:46:30;;;;;;;7.73;6.80;;;0.40;99.90;;;;;;5039135;28;20189;-57
2022/04/02 05:48:57;;;;;;;8.60;5.50;;;0.50;99.90;;;;;;5036511;28;20527;-57
2022/04/02 05:51:23;;;;;;;7.60;5.80;;;0.50;99.90;;;;;;5044456;28;20312;-58
2022/04/02 05:53:49;;;;;;;7.87;6.40;;;0.50;99.90;;;;;;5045681;28;20568;-57
2022/04/02 05:56:15;;;;;;;9.97;7.03;;;0.50;99.90;;;;;;5040717;28;20208;-57
2022/04/02 05:58:41;;;;;;;7.80;5.90;;;0.40;99.90;;;;;;5043548;28;20173;-59
2022/04/02 06:01:07;;;;;;;8.60;6.43;;;0.50;99.90;;;;;;5039587;28;20780;-58
2022/04/02 06:03:33;;;;;;;10.00;6.63;;;0.40;99.90;;;;;;5037136;28;21504;-58
2022/04/02 06:05:59;;;;;;;10.83;8.30;;;0.40;99.90;;;;;;5046533;28;20446;-58
2022/04/02 06:08:24;;;;;;;12.83;10.10;;;0.50;99.90;;;;;;5045508;28;22236;-59
2022/04/02 06:10:50;;;;;;;9.50;7.50;;;0.50;99.90;;;;;;5046354;28;20437;-58
2022/04/02 06:13:16;;;;;;;8.33;6.77;;;0.50;99.90;;;;;;5044008;28;20169;-57
2022/04/02 06:15:42;;;;;;;12.57;9.30;;;0.50;99.90;;;;;;5045781;28;20520;-57
2022/04/02 06:18:07;;;;;;;11.17;7.07;;;0.50;99.90;;;;;;5045740;28;20233;-57
2022/04/02 06:20:33;;;;;;;9.00;6.90;;;0.60;99.90;;;;;;5043253;28;20179;-57
2022/04/02 06:22:59;;;;;;;9.27;7.07;;;0.60;99.90;;;;;;5043352;28;20449;-57
2022/04/02 06:25:26;;;;;;;8.67;6.67;;;0.60;99.90;;;;;;5045755;28;20199;-57
2022/04/02 06:27:52;;;;;;;9.77;7.60;;;0.70;99.90;;;;;;5040290;28;20436;-58
2022/04/02 06:30:20;;;;;;;9.93;8.13;;;0.70;99.90;;;;;;5048114;28;20408;-57
2022/04/02 06:32:46;;;;;;;6.77;6.00;;;0.70;99.90;;;;;;5047219;28;20485;-58
2022/04/02 06:35:12;;;;;;;8.83;6.80;;;0.70;99.90;;;;;;5044853;28;20475;-58
2022/04/02 06:37:39;;;;;;;7.90;6.43;;;0.70;99.90;;;;;;5045232;28;20206;-59
2022/04/02 06:40:09;;;;;;;7.80;6.17;;;0.70;99.90;;;;;;5044443;28;20256;-59
2022/04/02 06:42:35;;;;;;;9.60;6.57;;;0.70;99.90;;;;;;5043598;28;20589;-57
2022/04/02 06:45:01;;;;;;;7.97;6.23;;;0.80;99.90;;;;;;5038490;28;20542;-57
2022/04/02 06:47:29;;;;;;;8.70;6.90;;;0.80;99.90;;;;;;5039109;28;20865;-58
2022/04/02 06:49:56;;;;;;;8.37;6.23;;;0.80;99.90;;;;;;5043607;28;20489;-55
2022/04/02 06:52:21;;;;;;;7.20;5.47;;;0.80;99.90;;;;;;5044115;28;20427;-57
2022/04/02 06:54:48;;;;;;;7.97;5.70;;;0.90;99.90;;;;;;5039966;28;20450;-57
2022/04/02 06:57:18;;;;;;;7.33;5.60;;;1.00;99.90;;;;;;5036741;28;20322;-57
2022/04/02 06:59:44;;;;;;;7.37;6.00;;;1.00;99.90;;;;;;5041365;28;20951;-56
2022/04/02 07:02:10;;;;;;;9.40;6.00;;;1.00;99.90;;;;;;5039635;28;20428;-58
2022/04/02 07:04:36;;;;;;;9.80;5.37;;;1.00;99.90;;;;;;5039251;28;20193;-57
2022/04/02 07:07:01;;;;;;;5.63;5.07;;;1.10;99.90;;;;;;5037142;28;20842;-58
2022/04/02 07:09:28;;;;;;;6.30;5.30;;;1.10;99.90;;;;;;5037017;28;20196;-57
2022/04/02 07:11:54;;;;;;;6.87;5.70;;;1.10;99.90;;;;;;5042614;28;20637;-58
2022/04/02 07:14:20;;;;;;;6.47;5.17;;;1.20;99.90;;;;;;5041670;28;20462;-58
2022/04/02 07:16:45;;;;;;;7.97;5.33;;;1.20;99.90;;;;;;5039213;28;20456;-57
2022/04/02 07:19:11;;;;;;;6.07;5.47;;;1.20;99.90;;;;;;5041877;28;20194;-56
2022/04/02 07:21:43;;;;;;;6.33;5.43;;;1.20;99.90;;;;;;5045952;28;20190;-59
2022/04/02 07:24:10;;;;;;;7.00;5.73;;;1.20;99.90;;;;;;5038836;28;21089;-57
2022/04/02 07:26:38;;;;;;;8.13;5.50;;;1.30;99.90;;;;;;5039116;28;20522;-57
2022/04/02 07:29:04;;;;;;;7.00;5.40;;;1.30;99.90;;;;;;5042653;28;20489;-58
2022/04/02 07:31:30;;;;;;;6.10;5.50;;;1.40;99.90;;;;;;5045485;28;20934;-58
2022/04/02 07:33:55;;;;;;;5.83;5.20;;;1.40;99.90;;;;;;5036349;28;20458;-57
2022/04/02 07:36:30;;;;;;;5.80;5.10;;;1.50;99.90;;;;;;5038785;28;20195;-57
2022/04/02 07:39:02;;;;;;;8.60;4.83;;;1.50;99.90;;;;;;5037568;28;20172;-57
2022/04/02 07:41:47;;;;;;;7.27;5.70;;;1.60;99.90;;;;;;5052727;28;20422;-58
2022/04/02 07:44:44;;;;;;;6.80;5.07;;;1.70;99.40;;;;;;5054591;28;20479;-60
2022/04/02 07:47:14;;;;;;;6.20;5.17;;;1.80;98.60;;;;;;5030227;28;20453;-58
2022/04/02 07:49:43;;;;;;;5.07;4.57;;;1.80;98.50;;;;;;5042261;28;20893;-58
2022/04/02 07:52:11;;;;;;;6.70;4.50;;;1.80;97.60;;;;;;5038797;28;20531;-57
2022/04/02 07:54:41;;;;;;;6.73;5.27;;;1.90;98.20;;;;;;5037266;28;20461;-57
2022/04/02 07:57:09;;;;;;;5.23;4.70;;;1.90;97.50;;;;;;5042384;28;20580;-57
2022/04/02 07:59:44;;;;;;;6.50;5.07;;;1.80;98.10;;;;;;5045026;28;21561;-57
2022/04/02 08:05:00;;;;;;;4.40;4.00;;;1.80;97.30;;;;;;5039886;28;20843;-58
2022/04/02 08:07:29;;;;;;;5.20;4.70;;;1.80;95.30;;;;;;5042139;28;21002;-57
2022/04/02 08:09:55;;;;;;;6.33;4.43;;;1.70;95.90;;;;;;5043665;28;20528;-57
2022/04/02 08:12:22;;;;;;;4.53;4.13;;;1.70;94.80;;;;;;5043727;28;20462;-58
2022/04/02 08:14:50;;;;;;;4.40;4.00;;;1.70;95.10;;;;;;5046591;28;20477;-57
2022/04/02 08:17:16;;;;;;;4.30;3.90;;;1.70;95.00;;;;;;5046464;28;20892;-58
2022/04/02 08:19:41;;;;;;;5.70;4.50;;;1.70;96.10;;;;;;5042490;28;20974;-58
2022/04/02 08:22:07;;;;;;;5.30;4.60;;;1.70;95.60;;;;;;5042176;28;20648;-60
2022/04/02 08:24:33;;;;;;;8.73;4.53;;;1.70;96.00;;;;;;5046854;28;20248;-60
2022/04/02 08:27:05;;;;;;;10.07;4.63;;;1.70;94.70;;;;;;5048640;28;20218;-59
2022/04/02 08:29:58;;;;;;;7.03;4.10;;;1.70;95.50;;;;;;5046369;28;20202;-58
2022/04/02 08:32:58;;;;;;;7.17;4.60;;;1.70;95.30;;;;;;5043093;28;20931;-57
2022/04/02 08:35:34;;;;;;;6.40;5.00;;;1.70;94.50;;;;;;5046885;28;20505;-58
2022/04/02 08:38:08;;;;;;;4.90;4.40;;;1.70;95.80;;;;;;5044581;28;20471;-59
2022/04/02 08:40:44;;;;;;;6.93;5.37;;;1.80;96.90;;;;;;5042795;28;20434;-60
2022/04/02 08:43:21;;;;;;;5.47;4.97;;;1.80;94.70;;;;;;5046883;28;20909;-59
2022/04/02 08:46:18;;;;;;;5.87;5.27;;;1.80;91.70;;;;;;5043879;28;20452;-61
2022/04/02 08:49:09;;;;;;;6.03;4.97;;;1.80;93.90;;;;;;5026374;28;20443;-60
2022/04/02 08:51:46;;;;;;;6.33;5.10;;;1.90;92.20;;;;;;5041065;28;20529;-59
2022/04/02 08:54:38;;;;;;;7.23;5.73;;;2.00;92.10;;;;;;5039500;28;20480;-59
2022/04/02 08:57:27;;;;;;;6.33;5.13;;;2.00;92.00;;;;;;5041963;28;21048;-61
2022/04/02 09:00:06;;;;;;;6.00;5.40;;;2.10;92.20;;;;;;5041043;28;21165;-60
2022/04/02 09:02:53;;;;;;;6.00;5.40;;;2.20;92.10;;;;;;5036227;28;20428;-59
2022/04/02 09:05:32;;;;;;;6.30;5.00;;;2.30;90.00;;;;;;5041615;28;20553;-58
2022/04/02 09:08:35;;;;;;;5.17;4.70;;;2.30;88.70;;;;;;5041515;28;20444;-58
2022/04/02 09:11:34;;;;;;;6.53;5.20;;;2.40;87.90;;;;;;5038653;28;20474;-58
2022/04/02 09:14:12;;;;;;;4.97;4.47;;;2.40;87.60;;;;;;5041714;28;20688;-58
2022/04/02 09:17:00;;;;;;;6.47;4.47;;;2.30;86.80;;;;;;5038017;28;21076;-58
2022/04/02 09:19:30;;;;;;;4.90;4.37;;;2.40;88.80;;;;;;5034922;28;20595;-59
2022/04/02 09:22:38;;;;;;;10.70;7.30;;;2.40;89.60;;;;;;5052167;28;20436;-60
2022/04/02 09:25:13;;;;;;;4.93;3.80;;;2.40;83.30;;;;;;5050383;28;21211;-60
2022/04/02 09:27:57;;;;;;;3.97;3.57;;;2.30;82.70;;;;;;5044630;28;20830;-60
2022/04/02 09:30:51;;;;;;;4.83;3.73;;;2.20;82.60;;;;;;5037301;28;20475;-59
2022/04/02 09:33:43;;;;;;;4.70;3.83;;;2.20;85.10;;;;;;5033441;28;20440;-57
2022/04/02 09:36:28;;;;;;;3.80;3.50;;;2.20;84.30;;;;;;5033196;28;20545;-58
2022/04/02 09:39:05;;;;;;;4.90;3.50;;;2.20;83.70;;;;;;5039580;28;20457;-58
2022/04/02 09:41:57;;;;;;;4.00;3.30;;;2.30;85.40;;;;;;5042743;28;22475;-58
2022/04/02 09:44:35;;;;;;;3.70;3.40;;;2.30;88.00;;;;;;5037721;28;20814;-58
2022/04/02 09:47:05;;;;;;;4.67;3.33;;;2.40;85.50;;;;;;5040359;28;20580;-58
2022/04/02 09:49:49;;;;;;;4.57;3.90;;;2.30;82.00;;;;;;5035701;28;20822;-58
2022/04/02 09:52:22;;;;;;;4.03;3.07;;;2.30;83.30;;;;;;5036365;28;20444;-58
2022/04/02 09:55:07;;;;;;;4.47;3.97;;;2.30;82.70;;;;;;5040824;28;20491;-58
2022/04/02 09:57:47;;;;;;;3.90;3.50;;;2.20;83.80;;;;;;5047985;28;20467;-59
2022/04/02 10:00:19;;;;;;;4.27;3.80;;;2.20;86.90;;;;;;5046967;28;20439;-59
2022/04/02 10:03:06;;;;;;;4.40;3.70;;;2.20;83.60;;;;;;5045352;28;20450;-59
2022/04/02 10:05:51;;;;;;;3.97;3.57;;;2.20;83.00;;;;;;5041320;28;20987;-58
2022/04/02 10:08:23;;;;;;;4.73;4.10;;;2.20;82.60;;;;;;5043237;28;20463;-58
2022/04/02 10:10:49;;;;;;;4.27;3.87;;;2.30;81.50;;;;;;5043903;28;20441;-58
2022/04/02 10:13:16;;;;;;;4.03;3.60;;;2.30;79.80;;;;;;5048494;28;20505;-58
2022/04/02 10:15:42;;;;;;;5.20;3.93;;;2.30;83.20;;;;;;5045621;28;20510;-59
2022/04/02 10:18:14;;;;;;;3.70;3.40;;;2.40;86.50;;;;;;5046664;28;21034;-58
2022/04/02 10:20:45;;;;;;;4.20;3.77;;;2.50;88.40;;;;;;5033936;28;20434;-58
2022/04/02 10:23:20;;;;;;;3.97;3.60;;;2.50;86.50;;;;;;5046830;28;20486;-58
2022/04/02 10:26:17;;;;;;;4.00;3.47;;;2.50;81.10;;;;;;5045392;28;20536;-58
2022/04/02 10:29:01;;;;;;;4.70;4.30;;;2.50;82.00;;;;;;5055973;28;20437;-59
2022/04/02 10:31:46;;;;;;;5.10;4.20;;;2.50;82.50;;;;;;5040362;28;20441;-58
2022/04/02 10:34:17;;;;;;;4.03;3.70;;;2.60;84.00;;;;;;5043934;28;20891;-58
2022/04/02 10:36:51;;;;;;;4.20;3.60;;;2.60;82.80;;;;;;5042323;28;20473;-59
2022/04/02 10:39:21;;;;;;;5.60;3.90;;;2.60;83.60;;;;;;5033104;28;20532;-59
2022/04/02 10:41:54;;;;;;;4.47;4.03;;;2.60;81.20;;;;;;5046952;28;20418;-58
2022/04/02 10:44:35;;;;;;;5.30;4.10;;;2.60;78.70;;;;;;5046849;28;20463;-58
2022/04/02 10:47:04;;;;;;;4.93;4.43;;;2.60;85.30;;;;;;5041313;22;20482;-60
2022/04/02 10:49:37;;;;;;;5.30;4.30;;;2.80;87.30;;;;;;5024390;28;20500;-60
2022/04/02 10:52:04;;;;;;;4.23;3.83;;;2.90;87.20;;;;;;5024636;28;20520;-59
2022/04/02 10:54:30;;;;;;;7.13;3.83;;;3.00;86.80;;;;;;5026449;28;20438;-59
2022/04/02 10:56:56;;;;;;;4.77;4.20;;;3.10;84.90;;;;;;5023778;28;20511;-59
2022/04/02 10:59:30;;;;;;;4.93;4.43;;;3.20;86.80;;;;;;5023355;28;20448;-59
2022/04/02 11:01:59;;;;;;;4.70;4.17;;;3.30;79.70;;;;;;5012624;28;20457;-59
2022/04/02 11:04:52;;;;;;;4.37;3.53;;;3.40;77.80;;;;;;5028428;28;20428;-59
2022/04/02 11:07:29;;;;;;;4.53;3.73;;;3.40;76.50;;;;;;5029342;28;20453;-59
2022/04/02 11:09:59;;;;;;;4.03;3.30;;;3.40;74.20;;;;;;5021027;28;20452;-59
2022/04/02 11:12:41;;;;;;;3.97;3.43;;;3.30;74.70;;;;;;5023941;28;20941;-59
2022/04/02 11:15:13;;;;;;;5.10;4.60;;;3.10;71.50;;;;;;5020661;28;20888;-59
2022/04/02 11:17:44;;;;;;;4.37;3.97;;;3.00;72.40;;;;;;5026034;28;20540;-59
2022/04/02 11:20:15;;;;;;;4.40;4.00;;;2.90;73.70;;;;;;5025082;28;20442;-59
2022/04/02 11:22:53;;;;;;;4.07;3.70;;;2.90;75.40;;;;;;5024384;28;20942;-58
2022/04/02 11:25:24;;;;;;;4.83;4.20;;;2.80;78.60;;;;;;5024557;28;20422;-58
2022/04/02 11:27:54;;;;;;;4.73;4.23;;;2.80;79.80;;;;;;5018381;28;20438;-59
2022/04/02 11:30:21;;;;;;;3.97;3.60;;;2.90;81.80;;;;;;5027399;28;20466;-59
2022/04/02 11:32:50;;;;;;;4.53;3.97;;;3.00;82.50;;;;;;5028015;28;20437;-59
2022/04/02 11:35:24;;;;;;;5.07;3.93;;;3.20;82.20;;;;;;5029867;28;20437;-59
2022/04/02 11:38:01;;;;;;;4.20;3.80;;;3.20;79.40;;;;;;5026276;28;20495;-59
2022/04/02 11:40:29;;;;;;;4.20;3.80;;;3.20;77.20;;;;;;5032645;28;20421;-59
2022/04/02 11:43:02;;;;;;;4.20;3.80;;;3.20;74.10;;;;;;5031072;28;20541;-59
2022/04/02 11:45:29;;;;;;;5.20;4.03;;;3.10;76.50;;;;;;5024685;28;20469;-59
2022/04/02 11:48:10;;;;;;;4.07;3.50;;;3.00;74.20;;;;;;5032900;28;20928;-59
2022/04/02 11:50:40;;;;;;;3.53;3.23;;;3.00;73.10;;;;;;5032488;28;20437;-59
2022/04/02 11:53:07;;;;;;;4.30;3.90;;;2.90;76.00;;;;;;5030990;28;20521;-59
2022/04/02 11:55:37;;;;;;;4.23;3.37;;;2.90;76.10;;;;;;5021987;28;20455;-59
2022/04/02 11:58:04;;;;;;;4.47;3.70;;;2.90;79.00;;;;;;5031174;28;20984;-59
2022/04/02 12:00:33;;;;;;;4.20;3.80;;;3.00;75.60;;;;;;5032104;28;20809;-59
2022/04/02 12:02:59;;;;;;;6.67;5.40;;;2.90;73.50;;;;;;5025758;28;21153;-59
2022/04/02 12:05:37;;;;;;;4.77;4.27;;;2.90;74.50;;;;;;5027699;28;20545;-59
2022/04/02 12:08:03;;;;;;;5.17;4.07;;;3.00;76.30;;;;;;5030759;28;20422;-58
2022/04/02 12:10:32;;;;;;;4.87;4.30;;;3.00;74.20;;;;;;5027769;28;20462;-59
2022/04/02 12:12:59;;;;;;;4.63;3.80;;;3.00;71.70;;;;;;5032415;28;20560;-59
2022/04/02 12:15:26;;;;;;;4.50;4.07;;;2.90;72.70;;;;;;5028508;28;20453;-59
2022/04/02 12:17:59;;;;;;;3.67;3.37;;;2.90;76.10;;;;;;5033289;28;20469;-61
2022/04/02 12:20:30;;;;;;;3.67;3.37;;;2.90;76.40;;;;;;5019858;28;20442;-58
2022/04/02 12:23:16;;;;;;;3.93;3.63;;;2.90;73.30;;;;;;5030893;28;20437;-59
2022/04/02 12:26:02;;;;;;;5.27;4.77;;;2.80;76.80;;;;;;5031941;28;20430;-59
2022/04/02 12:28:29;;;;;;;5.50;4.70;;;2.80;75.90;;;;;;5023324;28;20435;-59
2022/04/02 12:31:04;;;;;;;5.77;4.40;;;2.80;75.90;;;;;;5022229;28;20433;-59
2022/04/02 12:33:30;;;;;;;5.70;4.40;;;2.90;78.00;;;;;;5032064;28;20960;-59
2022/04/02 12:36:00;;;;;;;4.73;4.27;;;2.90;76.30;;;;;;5028213;28;20460;-59
2022/04/02 12:38:27;;;;;;;5.27;4.67;;;2.90;75.70;;;;;;5045675;28;20184;-59
2022/04/02 12:40:56;;;;;;;4.33;3.90;;;2.90;76.10;;;;;;5030703;28;20426;-59
2022/04/02 12:43:31;;;;;;;7.50;5.00;;;2.80;76.80;;;;;;5032318;28;20430;-59
2022/04/02 12:45:58;;;;;;;5.57;4.30;;;2.70;77.00;;;;;;5019601;28;20458;-59
2022/04/02 12:48:25;;;;;;;5.73;5.23;;;2.70;77.30;;;;;;5028287;28;20416;-59
2022/04/02 12:50:59;;;;;;;5.20;4.47;;;2.70;76.40;;;;;;5018655;28;20791;-59
2022/04/02 12:53:37;;;;;;;6.30;4.10;;;2.70;75.80;;;;;;5027612;28;20446;-59
2022/04/02 12:56:05;;;;;;;5.60;4.37;;;2.70;80.30;;;;;;5027778;28;20446;-59
2022/04/02 12:58:31;;;;;;;5.40;4.50;;;2.70;82.60;;;;;;5032549;28;20474;-58
2022/04/02 13:01:19;;;;;;;4.83;4.37;;;2.80;77.50;;;;;;5032433;28;20432;-59
2022/04/02 13:04:08;;;;;;;5.53;4.43;;;2.80;79.50;;;;;;5028440;28;20263;-58
2022/04/02 13:06:42;;;;;;;7.20;4.63;;;2.80;75.10;;;;;;5030776;28;20464;-58
2022/04/02 13:09:21;;;;;;;6.00;5.27;;;2.80;75.10;;;;;;5029557;28;20533;-59
2022/04/02 13:11:53;;;;;;;5.43;4.33;;;2.70;75.80;;;;;;5024783;28;20600;-59
2022/04/02 13:14:19;;;;;;;7.13;5.60;;;2.60;71.50;;;;;;5031344;28;20498;-59